createdAt,value
2022-10-17T00:01:02.748Z,12.32
2022-10-17T00:03:29.421Z,12.27
2022-10-17T00:05:58.426Z,12.22
2022-10-17T00:08:25.475Z,12.18
2022-10-17T00:11:01.694Z,12.16
2022-10-17T00:13:28.706Z,12.10
2022-10-17T00:15:58.180Z,12.07
2022-10-17T00:18:26.631Z,11.98
2022-10-17T00:20:54.632Z,11.89
2022-10-17T00:23:22.664Z,11.86
2022-10-17T00:26:01.487Z,11.82
2022-10-17T00:28:29.309Z,11.83
2022-10-17T00:31:03.040Z,11.79
2022-10-17T00:33:31.221Z,11.71
2022-10-17T00:36:08.548Z,11.66
2022-10-17T00:38:38.378Z,11.58
2022-10-17T00:41:07.178Z,11.55
2022-10-17T00:44:29.354Z,11.50
2022-10-17T00:46:58.670Z,11.44
2022-10-17T00:49:29.911Z,11.44
2022-10-17T00:52:01.743Z,11.45
2022-10-17T00:54:32.822Z,11.45
2022-10-17T00:57:01.687Z,11.42
2022-10-17T00:59:29.888Z,11.40
2022-10-17T01:02:13.601Z,11.41
2022-10-17T01:04:44.300Z,11.38
2022-10-17T01:07:12.674Z,11.41
2022-10-17T01:09:41.565Z,11.43
2022-10-17T01:12:30.803Z,11.44
2022-10-17T01:15:27.535Z,11.42
2022-10-17T01:18:15.245Z,11.38
2022-10-17T01:21:17.951Z,11.40
2022-10-17T01:24:18.070Z,11.37
2022-10-17T01:27:09.253Z,11.36
2022-10-17T01:29:53.948Z,11.32
2022-10-17T01:32:56.418Z,11.32
2022-10-17T01:35:47.184Z,11.36
2022-10-17T01:38:21.098Z,11.37
2022-10-17T01:41:17.896Z,11.33
2022-10-17T01:43:53.852Z,11.33
2022-10-17T01:46:27.041Z,11.36
2022-10-17T01:48:58.276Z,11.33
2022-10-17T01:51:36.895Z,11.33
2022-10-17T01:54:24.404Z,11.38
2022-10-17T01:56:58.499Z,11.36
2022-10-17T01:59:32.005Z,11.36
2022-10-17T02:02:01.807Z,11.33
2022-10-17T02:04:29.209Z,11.31
2022-10-17T02:06:56.997Z,11.31
2022-10-17T02:09:29.459Z,11.31
2022-10-17T02:12:01.764Z,11.29
2022-10-17T02:14:37.373Z,11.29
2022-10-17T02:17:25.204Z,11.25
2022-10-17T02:20:24.718Z,11.23
2022-10-17T02:23:21.501Z,11.21
2022-10-17T02:25:47.998Z,11.20
2022-10-17T02:28:14.504Z,11.22
2022-10-17T02:31:06.919Z,11.24
2022-10-17T02:33:39.351Z,11.27
2022-10-17T02:36:11.881Z,11.26
2022-10-17T02:38:40.458Z,11.25
2022-10-17T02:41:11.605Z,11.22
2022-10-17T02:43:39.352Z,11.15
2022-10-17T02:46:08.054Z,11.14
2022-10-17T02:48:37.365Z,11.10
2022-10-17T02:51:20.973Z,11.07
2022-10-17T02:53:59.493Z,11.06
2022-10-17T02:56:29.136Z,11.04
2022-10-17T02:58:59.040Z,11.03
2022-10-17T03:01:26.291Z,11.00
2022-10-17T03:04:07.342Z,10.97
2022-10-17T03:06:33.995Z,10.97
2022-10-17T03:09:00.577Z,10.93
2022-10-17T03:11:27.203Z,10.89
2022-10-17T03:13:53.805Z,10.88
2022-10-17T03:16:20.414Z,10.85
2022-10-17T03:18:49.377Z,10.81
2022-10-17T03:21:16.953Z,10.77
2022-10-17T03:23:43.520Z,10.73
2022-10-17T03:26:10.380Z,10.69
2022-10-17T03:28:37.053Z,10.68
2022-10-17T03:31:12.958Z,10.67
2022-10-17T03:33:39.725Z,10.68
2022-10-17T03:36:08.398Z,10.68
2022-10-17T03:38:35.655Z,10.70
2022-10-17T03:41:03.024Z,10.75
2022-10-17T03:43:30.443Z,10.74
2022-10-17T03:46:01.510Z,10.73
2022-10-17T03:48:29.867Z,10.72
2022-10-17T03:51:09.802Z,10.73
2022-10-17T03:53:36.450Z,10.73
2022-10-17T03:56:20.881Z,10.70
2022-10-17T03:58:47.756Z,10.69
2022-10-17T04:01:16.565Z,10.64
2022-10-17T04:03:43.938Z,10.63
2022-10-17T04:06:13.295Z,10.64
2022-10-17T04:08:40.220Z,10.64
2022-10-17T04:11:08.440Z,10.66
2022-10-17T04:13:36.090Z,10.67
2022-10-17T04:16:06.003Z,10.65
2022-10-17T04:18:33.540Z,10.65
2022-10-17T04:21:07.416Z,10.63
2022-10-17T04:23:34.378Z,10.63
2022-10-17T04:26:03.438Z,10.63
2022-10-17T04:28:30.716Z,10.66
2022-10-17T04:31:06.340Z,10.66
2022-10-17T04:33:34.254Z,10.69
2022-10-17T04:36:02.886Z,10.68
2022-10-17T04:38:30.747Z,10.65
2022-10-17T04:40:58.744Z,10.61
2022-10-17T04:43:25.321Z,10.59
2022-10-17T04:45:51.960Z,10.55
2022-10-17T04:48:18.551Z,10.54
2022-10-17T04:51:01.346Z,10.52
2022-10-17T04:53:28.245Z,10.53
2022-10-17T04:55:54.898Z,10.55
2022-10-17T04:58:21.514Z,10.54
2022-10-17T05:00:48.211Z,10.55
2022-10-17T05:03:15.177Z,10.55
2022-10-17T05:05:42.514Z,10.53
2022-10-17T05:08:10.793Z,10.55
2022-10-17T05:10:43.143Z,10.56
2022-10-17T05:13:10.762Z,10.58
2022-10-17T05:15:38.180Z,10.61
2022-10-17T05:18:06.198Z,10.63
2022-10-17T05:20:33.512Z,10.64
2022-10-17T05:23:00.663Z,10.70
2022-10-17T05:25:27.247Z,10.74
2022-10-17T05:27:54.495Z,10.78
2022-10-17T05:30:21.106Z,10.81
2022-10-17T05:32:47.720Z,10.83
2022-10-17T05:35:14.363Z,10.90
2022-10-17T05:37:41.087Z,10.93
2022-10-17T05:40:08.608Z,10.99
2022-10-17T05:42:35.234Z,11.03
2022-10-17T05:45:01.829Z,11.08
2022-10-17T05:47:28.783Z,11.16
2022-10-17T05:49:55.661Z,11.21
2022-10-17T05:52:22.274Z,11.24
2022-10-17T05:54:48.898Z,11.35
2022-10-17T05:57:15.513Z,11.40
2022-10-17T05:59:42.268Z,11.46
2022-10-17T06:02:12.532Z,11.56
2022-10-17T06:04:41.074Z,11.63
2022-10-17T06:07:07.692Z,11.74
2022-10-17T06:09:34.398Z,11.85
2022-10-17T06:12:00.975Z,11.93
2022-10-17T06:14:27.664Z,12.07
2022-10-17T06:16:54.209Z,12.21
2022-10-17T06:19:20.765Z,12.36
2022-10-17T06:21:47.323Z,12.47
2022-10-17T06:24:13.983Z,12.56
2022-10-17T06:26:40.535Z,12.71
2022-10-17T06:29:07.298Z,12.88
2022-10-17T06:31:34.007Z,13.00
2022-10-17T06:34:00.575Z,13.13
2022-10-17T06:36:27.241Z,13.24
2022-10-17T06:38:53.805Z,13.33
2022-10-17T06:41:20.473Z,13.48
2022-10-17T06:43:47.643Z,13.70
2022-10-17T06:46:16.344Z,13.82
2022-10-17T06:48:43.410Z,13.97
2022-10-17T06:51:11.474Z,14.13
2022-10-17T06:53:40.053Z,14.27
2022-10-17T06:56:08.378Z,14.34
2022-10-17T06:58:39.139Z,14.46
2022-10-17T07:01:11.901Z,14.64
2022-10-17T07:03:39.221Z,14.81
2022-10-17T07:06:06.050Z,14.94
2022-10-17T07:08:32.709Z,15.02
2022-10-17T07:10:59.441Z,15.08
2022-10-17T07:13:26.049Z,15.19
2022-10-17T07:15:52.719Z,15.36
2022-10-17T07:18:19.345Z,15.61
2022-10-17T07:20:54.111Z,15.69
2022-10-17T07:23:21.178Z,15.86
2022-10-17T07:25:47.782Z,16.04
2022-10-17T07:28:16.056Z,16.18
2022-10-17T07:30:43.185Z,16.14
2022-10-17T07:33:09.734Z,16.20
2022-10-17T07:35:38.238Z,16.38
2022-10-17T07:38:04.853Z,16.46
2022-10-17T07:40:35.243Z,16.59
2022-10-17T07:43:06.122Z,16.74
2022-10-17T07:45:35.288Z,16.90
2022-10-17T07:48:05.375Z,17.18
2022-10-17T07:50:34.280Z,17.19
2022-10-17T07:53:09.833Z,17.28
2022-10-17T07:55:49.531Z,17.52
2022-10-17T07:58:21.603Z,17.55
2022-10-17T08:00:53.478Z,17.66
2022-10-17T08:03:21.557Z,18.05
2022-10-17T08:05:48.213Z,18.34
2022-10-17T08:08:16.458Z,18.60
2022-10-17T08:10:45.923Z,18.49
2022-10-17T08:13:12.490Z,18.63
2022-10-17T08:15:40.827Z,18.43
2022-10-17T08:18:10.354Z,18.47
2022-10-17T08:20:55.597Z,18.83
2022-10-17T08:23:26.341Z,19.08
2022-10-17T08:25:55.029Z,19.17
2022-10-17T08:28:23.774Z,19.37
2022-10-17T08:30:55.597Z,19.81
2022-10-17T08:33:23.515Z,19.97
2022-10-17T08:35:54.148Z,19.93
2022-10-17T08:38:27.548Z,20.06
2022-10-17T08:41:02.892Z,20.07
2022-10-17T08:44:00.820Z,20.19
2022-10-17T08:46:46.266Z,20.21
2022-10-17T08:49:42.204Z,20.48
2022-10-17T08:52:40.543Z,20.60
2022-10-17T08:55:32.367Z,20.73
2022-10-17T08:58:00.430Z,20.91
2022-10-17T09:00:31.674Z,21.07
2022-10-17T09:03:41.501Z,21.29
2022-10-17T09:06:33.000Z,21.99
2022-10-17T09:09:37.337Z,22.19
2022-10-17T09:12:36.081Z,22.48
2022-10-17T09:15:32.277Z,22.32
2022-10-17T09:18:17.606Z,21.88
2022-10-17T09:21:13.791Z,22.41
2022-10-17T09:24:09.656Z,22.70
2022-10-17T09:26:45.865Z,23.03
2022-10-17T09:29:43.619Z,22.63
2022-10-17T09:32:25.259Z,23.03
2022-10-17T09:34:55.292Z,23.09
2022-10-17T09:37:31.618Z,22.72
2022-10-17T09:39:59.964Z,22.38
2022-10-17T09:42:29.875Z,22.90
2022-10-17T09:45:31.856Z,23.36
2022-10-17T09:48:22.772Z,23.44
2022-10-17T09:51:02.532Z,23.50
2022-10-17T09:54:01.206Z,23.63
2022-10-17T09:56:31.298Z,23.74
2022-10-17T09:59:05.076Z,23.73
2022-10-17T10:01:35.415Z,23.24
2022-10-17T10:04:18.453Z,23.50
2022-10-17T10:07:10.312Z,23.73
2022-10-17T10:09:40.412Z,23.52
2022-10-17T10:12:18.483Z,23.66
2022-10-17T10:14:47.345Z,24.07
2022-10-17T10:17:47.539Z,24.35
2022-10-17T10:20:36.070Z,24.50
2022-10-17T10:23:15.233Z,24.56
2022-10-17T10:26:06.290Z,24.59
2022-10-17T10:28:40.041Z,24.71
2022-10-17T10:31:12.157Z,24.93
2022-10-17T10:33:56.854Z,25.18
2022-10-17T10:36:25.422Z,25.31
2022-10-17T10:39:01.241Z,25.87
2022-10-17T10:41:48.079Z,25.62
2022-10-17T10:44:20.704Z,25.16
2022-10-17T10:46:50.395Z,25.02
2022-10-17T10:49:32.730Z,25.20
2022-10-17T10:52:10.986Z,26.00
2022-10-17T10:54:50.486Z,26.24
2022-10-17T10:57:27.114Z,26.21
2022-10-17T11:00:21.643Z,26.34
2022-10-17T11:03:35.651Z,26.46
2022-10-17T11:06:20.894Z,26.79
2022-10-17T11:09:28.832Z,27.25
2022-10-17T11:12:20.840Z,27.62
2022-10-17T11:15:19.023Z,28.22
2022-10-17T11:18:05.585Z,28.08
2022-10-17T11:21:00.916Z,27.79
2022-10-17T11:23:51.133Z,27.03
2022-10-17T11:27:10.509Z,26.93
2022-10-17T11:29:42.812Z,28.01
2022-10-17T11:32:19.627Z,28.09
2022-10-17T11:34:49.935Z,27.80
2022-10-17T11:37:23.079Z,28.36
2022-10-17T11:40:31.323Z,28.46
2022-10-17T11:43:02.311Z,28.60
2022-10-17T11:45:35.173Z,27.98
2022-10-17T11:48:17.895Z,27.87
2022-10-17T11:53:47.814Z,28.35
2022-10-17T11:56:20.175Z,27.93
2022-10-17T11:58:58.649Z,27.62
2022-10-17T12:01:42.161Z,27.32
2022-10-17T12:04:30.792Z,27.85
2022-10-17T12:07:25.690Z,28.13
2022-10-17T12:10:21.654Z,27.49
2022-10-17T12:12:49.536Z,27.53
2022-10-17T12:15:23.501Z,27.96
2022-10-17T12:18:03.161Z,28.35
2022-10-17T12:20:35.564Z,28.14
2022-10-17T12:23:13.308Z,28.19
2022-10-17T12:25:57.130Z,28.47
2022-10-17T12:28:38.365Z,28.91
2022-10-17T12:31:13.110Z,28.84
2022-10-17T12:33:39.698Z,28.62
2022-10-17T12:36:31.116Z,28.79
2022-10-17T12:39:03.586Z,28.77
2022-10-17T12:41:38.811Z,29.12
2022-10-17T12:44:14.739Z,28.92
2022-10-17T12:46:45.869Z,29.62
2022-10-17T12:49:24.584Z,30.06
2022-10-17T12:52:20.772Z,29.22
2022-10-17T12:55:13.178Z,29.33
2022-10-17T12:57:48.584Z,29.44
2022-10-17T13:00:28.105Z,29.78
2022-10-17T13:03:02.010Z,30.32
2022-10-17T13:05:32.790Z,30.61
2022-10-17T13:08:02.185Z,30.41
2022-10-17T13:10:32.345Z,30.72
2022-10-17T13:13:13.025Z,30.78
2022-10-17T13:15:39.696Z,30.92
2022-10-17T13:18:06.750Z,30.01
2022-10-17T13:20:33.584Z,30.47
2022-10-17T13:23:00.844Z,30.39
2022-10-17T13:25:28.708Z,30.27
2022-10-17T13:28:13.708Z,30.86
2022-10-17T13:30:49.278Z,30.53
2022-10-17T13:33:28.632Z,30.70
2022-10-17T13:36:00.549Z,30.42
2022-10-17T13:38:32.548Z,29.24
2022-10-17T13:41:11.057Z,29.22
2022-10-17T13:43:43.963Z,29.69
2022-10-17T13:46:36.956Z,29.73
2022-10-17T13:49:18.348Z,29.70
2022-10-17T13:51:48.037Z,29.55
2022-10-17T13:54:37.694Z,29.85
2022-10-17T13:57:25.752Z,30.28
2022-10-17T13:59:55.975Z,29.51
2022-10-17T14:02:28.620Z,28.72
2022-10-17T14:05:19.282Z,28.59
2022-10-17T14:08:11.799Z,28.77
2022-10-17T14:10:41.422Z,28.32
2022-10-17T14:13:19.166Z,28.39
2022-10-17T14:15:46.581Z,28.07
2022-10-17T14:18:22.269Z,27.83
2022-10-17T14:21:34.057Z,27.59
2022-10-17T14:23:43.610Z,27.79
2022-10-17T14:26:15.052Z,28.52
2022-10-17T14:28:42.728Z,28.70
2022-10-17T14:31:25.574Z,28.80
2022-10-17T14:33:54.183Z,29.20
2022-10-17T14:36:31.107Z,29.27
2022-10-17T14:39:01.770Z,29.31
2022-10-17T14:41:47.848Z,29.34
2022-10-17T14:44:43.119Z,29.39
2022-10-17T14:47:42.169Z,29.53
2022-10-17T14:50:11.556Z,29.64
2022-10-17T14:52:39.083Z,29.57
2022-10-17T14:55:24.660Z,30.09
2022-10-17T14:57:51.713Z,30.52
2022-10-17T15:00:21.120Z,30.85
2022-10-17T15:02:49.175Z,30.89
2022-10-17T15:05:16.490Z,30.69
2022-10-17T15:07:43.630Z,30.82
2022-10-17T15:10:28.404Z,30.61
2022-10-17T15:12:59.115Z,30.52
2022-10-17T15:15:30.402Z,30.43
2022-10-17T15:17:57.324Z,30.37
2022-10-17T15:20:27.174Z,29.93
2022-10-17T15:22:58.882Z,29.75
2022-10-17T15:25:26.727Z,29.35
2022-10-17T15:27:53.968Z,29.22
2022-10-17T15:30:29.907Z,28.15
2022-10-17T15:32:56.540Z,26.70
2022-10-17T15:35:23.412Z,25.62
2022-10-17T15:37:50.086Z,24.68
2022-10-17T15:40:18.112Z,24.06
2022-10-17T15:42:44.754Z,23.51
2022-10-17T15:45:12.873Z,22.72
2022-10-17T15:47:41.427Z,22.14
2022-10-17T15:50:11.720Z,21.72
2022-10-17T15:52:38.377Z,21.24
2022-10-17T15:55:05.484Z,20.91
2022-10-17T15:57:38.198Z,20.56
2022-10-17T16:00:16.662Z,20.35
2022-10-17T16:02:43.930Z,19.91
2022-10-17T16:05:16.735Z,19.73
2022-10-17T16:07:46.323Z,19.48
2022-10-17T16:10:14.234Z,19.30
2022-10-17T16:12:43.890Z,19.11
2022-10-17T16:15:16.925Z,18.86
2022-10-17T16:17:44.268Z,18.70
2022-10-17T16:20:12.555Z,18.57
2022-10-17T16:22:42.153Z,18.40
2022-10-17T16:25:21.512Z,18.28
2022-10-17T16:27:50.512Z,18.17
2022-10-17T16:30:17.646Z,18.04
2022-10-17T16:32:44.331Z,17.96
2022-10-17T16:35:17.584Z,17.88
2022-10-17T16:37:44.468Z,17.78
2022-10-17T16:40:11.858Z,17.64
2022-10-17T16:42:38.458Z,17.58
2022-10-17T16:45:05.657Z,17.49
2022-10-17T16:47:32.349Z,17.39
2022-10-17T16:49:58.947Z,17.31
2022-10-17T16:52:25.626Z,17.25
2022-10-17T16:54:52.225Z,17.17
2022-10-17T16:57:19.263Z,17.12
2022-10-17T16:59:45.844Z,17.03
2022-10-17T17:02:13.670Z,16.95
2022-10-17T17:04:41.822Z,16.93
2022-10-17T17:07:08.472Z,16.84
2022-10-17T17:09:35.130Z,16.76
2022-10-17T17:12:01.664Z,16.68
2022-10-17T17:14:28.306Z,16.65
2022-10-17T17:16:54.990Z,16.58
2022-10-17T17:19:21.720Z,16.55
2022-10-17T17:21:50.967Z,16.45
2022-10-17T17:24:21.510Z,16.37
2022-10-17T17:26:53.147Z,16.30
2022-10-17T17:29:20.584Z,16.22
2022-10-17T17:31:47.417Z,16.15
2022-10-17T17:34:17.954Z,16.10
2022-10-17T17:36:45.433Z,16.06
2022-10-17T17:39:15.001Z,16.02
2022-10-17T17:41:43.401Z,16.01
2022-10-17T17:44:15.583Z,15.94
2022-10-17T17:46:43.748Z,15.88
2022-10-17T17:49:11.588Z,15.81
2022-10-17T17:51:38.556Z,15.80
2022-10-17T17:54:05.393Z,15.79
2022-10-17T17:56:32.419Z,15.77
2022-10-17T17:59:01.743Z,15.73
2022-10-17T18:01:36.695Z,15.68
2022-10-17T18:04:05.177Z,15.63
2022-10-17T18:06:32.029Z,15.58
2022-10-17T18:08:59.520Z,15.53
2022-10-17T18:11:27.405Z,15.50
2022-10-17T18:13:59.571Z,15.46
2022-10-17T18:16:27.651Z,15.41
2022-10-17T18:18:54.358Z,15.38
2022-10-17T18:21:21.172Z,15.37
2022-10-17T18:23:48.887Z,15.34
2022-10-17T18:26:16.143Z,15.30
2022-10-17T18:28:43.975Z,15.24
2022-10-17T18:31:15.549Z,15.20
2022-10-17T18:33:44.619Z,15.19
2022-10-17T18:36:13.642Z,15.16
2022-10-17T18:38:40.301Z,15.10
2022-10-17T18:41:09.923Z,15.06
2022-10-17T18:43:38.243Z,15.02
2022-10-17T18:46:10.954Z,15.00
2022-10-17T18:48:42.113Z,14.95
2022-10-17T18:51:08.932Z,14.91
2022-10-17T18:53:39.943Z,14.90
2022-10-17T18:56:06.987Z,14.85
2022-10-17T18:58:33.662Z,14.83
2022-10-17T19:01:05.011Z,14.80
2022-10-17T19:03:32.364Z,14.76
2022-10-17T19:06:08.521Z,14.70
2022-10-17T19:08:36.782Z,14.63
2022-10-17T19:11:11.289Z,14.57
2022-10-17T19:13:38.081Z,14.52
2022-10-17T19:16:09.717Z,14.46
2022-10-17T19:18:37.491Z,14.39
2022-10-17T19:21:06.909Z,14.33
2022-10-17T19:23:35.949Z,14.26
2022-10-17T19:26:12.884Z,14.16
2022-10-17T19:28:42.170Z,14.11
2022-10-17T19:31:08.919Z,14.04
2022-10-17T19:33:35.945Z,13.98
2022-10-17T19:36:06.597Z,13.99
2022-10-17T19:38:34.083Z,13.96
2022-10-17T19:41:00.893Z,13.93
2022-10-17T19:43:27.488Z,13.88
2022-10-17T19:45:56.005Z,13.83
2022-10-17T19:48:23.091Z,13.77
2022-10-17T19:50:50.227Z,13.72
2022-10-17T19:53:17.798Z,13.68
2022-10-17T19:55:44.740Z,13.64
2022-10-17T19:58:12.129Z,13.60
2022-10-17T20:00:38.734Z,13.56
2022-10-17T20:03:05.301Z,13.53
2022-10-17T20:05:31.889Z,13.50
2022-10-17T20:07:58.516Z,13.46
2022-10-17T20:10:25.612Z,13.44
2022-10-17T20:12:52.195Z,13.40
2022-10-17T20:15:18.853Z,13.36
2022-10-17T20:17:45.484Z,13.33
2022-10-17T20:20:12.228Z,13.30
2022-10-17T20:22:38.896Z,13.29
2022-10-17T20:25:05.928Z,13.25
2022-10-17T20:27:32.757Z,13.24
2022-10-17T20:30:01.882Z,13.20
2022-10-17T20:32:30.996Z,13.18
2022-10-17T20:34:58.270Z,13.12
2022-10-17T20:37:25.399Z,13.10
2022-10-17T20:40:10.689Z,13.05
2022-10-17T20:42:38.793Z,13.01
2022-10-17T20:45:06.291Z,12.95
2022-10-17T20:47:45.027Z,12.90
2022-10-17T20:50:13.873Z,12.88
2022-10-17T20:52:40.461Z,12.79
2022-10-17T20:55:07.365Z,12.76
2022-10-17T20:57:33.917Z,12.73
2022-10-17T21:00:00.523Z,12.71
2022-10-17T21:02:27.119Z,12.70
2022-10-17T21:04:53.863Z,12.67
2022-10-17T21:07:22.230Z,12.63
2022-10-17T21:09:48.922Z,12.59
2022-10-17T21:12:25.765Z,12.56
2022-10-17T21:15:02.190Z,12.46
2022-10-17T21:17:28.805Z,12.35
2022-10-17T21:19:55.873Z,12.27
2022-10-17T21:22:22.509Z,12.15
2022-10-17T21:24:49.124Z,12.07
2022-10-17T21:27:18.125Z,12.02
2022-10-17T21:29:46.094Z,11.99
2022-10-17T21:32:25.171Z,11.93
2022-10-17T21:34:59.365Z,11.90
2022-10-17T21:37:26.000Z,11.83
2022-10-17T21:39:52.566Z,11.77
2022-10-17T21:42:22.721Z,11.68
2022-10-17T21:44:52.473Z,11.64
2022-10-17T21:47:23.252Z,11.63
2022-10-17T21:49:52.611Z,11.60
2022-10-17T21:52:20.607Z,11.61
2022-10-17T21:54:47.345Z,11.56
2022-10-17T21:59:48.135Z,11.50
2022-10-17T22:02:16.416Z,11.51
2022-10-17T22:04:46.750Z,11.53
2022-10-17T22:07:13.933Z,11.63
2022-10-17T22:09:41.719Z,11.73
2022-10-17T22:12:09.865Z,11.83
2022-10-17T22:14:38.824Z,11.90
2022-10-17T22:17:08.944Z,12.00
2022-10-17T22:19:36.680Z,12.05
2022-10-17T22:22:04.607Z,12.08
2022-10-17T22:24:32.421Z,12.14
2022-10-17T22:27:00.641Z,12.17
2022-10-17T22:29:28.720Z,12.20
2022-10-17T22:31:57.307Z,12.21
2022-10-17T22:34:23.836Z,12.19
2022-10-17T22:36:51.514Z,12.16
2022-10-17T22:39:19.688Z,12.13
2022-10-17T22:41:47.405Z,12.12
2022-10-17T22:44:14.008Z,12.04
2022-10-17T22:46:42.049Z,11.98
2022-10-17T22:49:10.078Z,11.93
2022-10-17T22:51:36.661Z,11.89
2022-10-17T22:54:04.373Z,11.85
2022-10-17T22:56:32.556Z,11.82
2022-10-17T22:59:00.446Z,11.83
2022-10-17T23:01:28.126Z,11.79
2022-10-17T23:03:56.130Z,11.78
2022-10-17T23:06:24.446Z,11.76
2022-10-17T23:08:52.339Z,11.72
2022-10-17T23:11:19.172Z,11.68
2022-10-17T23:13:47.291Z,11.66
2022-10-17T23:16:15.373Z,11.64
2022-10-17T23:18:44.207Z,11.63
2022-10-17T23:21:12.629Z,11.60
2022-10-17T23:23:39.324Z,11.58
2022-10-17T23:26:12.880Z,11.54
2022-10-17T23:28:41.973Z,11.54
2022-10-17T23:31:19.841Z,11.52
2022-10-17T23:33:50.039Z,11.49
2022-10-17T23:36:19.598Z,11.47
2022-10-17T23:38:48.632Z,11.47
2022-10-17T23:41:17.696Z,11.46
2022-10-17T23:43:44.713Z,11.43
2022-10-17T23:46:12.940Z,11.45
2022-10-17T23:48:41.225Z,11.42
2022-10-17T23:51:10.624Z,11.39
2022-10-17T23:53:39.057Z,11.36
2022-10-17T23:56:07.923Z,11.33
2022-10-17T23:58:36.337Z,11.30
